^^
Saratoga-Weather Station Historical Data
Daily Summary for October 15, 2020 Units:  Both    English   Metric
Daily Weekly Monthly Yearly Custom
  High: Low: Average:
Temperature: 47.5 °F /  8.6 °C 46 °F /  7.8 °C 46.9 °F /  8.3 °C
Dew Point: 43.5 °F /  6.4 °C 42.6 °F /  5.9 °C 43 °F /  6.1 °C
Humidity: 90% 84% 86%
Wind Speed: 4mph /  6.4km/h - 0.9mph /  1.5km/h
Wind Gust: 9mph /  14.5km/h - -
Wind- - South
Pressure: 30 in /  1015.2 hPa 30 in /  1015.2 hPa -
Precipitation: 0 in /  0.0 mm    
Historical Graphs
 
 
Tabular Data for October 15, 2020
Time Temperature Dew Point Pressure Wind Wind Speed Wind Gust Humidity Rainfall Rate (Hourly) solar
00:01 47.5 °F /  8.6 °C 43.2 °F /  6.2 °C 30in /  1015.2hPa ENE 0.9mph /  1.4km/h 9mph /  14.5km/h 85% 0in /  0.0mm 0 W/m2
00:06 47.3 °F /  8.5 °C 42.8 °F /  6 °C 30in /  1015.2hPa East 4mph /  6.4km/h 4mph /  6.4km/h 84% 0in /  0.0mm 0 W/m2
00:11 47.3 °F /  8.5 °C 42.8 °F /  6 °C 30in /  1015.2hPa Calm   9mph /  14.5km/h 84% 0in /  0.0mm 0 W/m2
00:16 47.3 °F /  8.5 °C 42.8 °F /  6 °C 30in /  1015.2hPa Calm   1mph /  1.6km/h 84% 0in /  0.0mm 0 W/m2
00:21 47.3 °F /  8.5 °C 43 °F /  6.1 °C 30in /  1015.2hPa NNE 2mph /  3.2km/h 3mph /  4.8km/h 85% 0in /  0.0mm 0 W/m2
00:26 47.1 °F /  8.4 °C 42.6 °F /  5.9 °C 30in /  1015.2hPa Calm   3mph /  4.8km/h 84% 0in /  0.0mm 0 W/m2
00:31 47.3 °F /  8.5 °C 42.8 °F /  6 °C 30in /  1015.2hPa Calm   4mph /  6.4km/h 84% 0in /  0.0mm 0 W/m2
00:36 47.3 °F /  8.5 °C 43 °F /  6.1 °C 30in /  1015.2hPa NW 2mph /  3.2km/h 3mph /  4.8km/h 85% 0in /  0.0mm 0 W/m2
00:41 47.1 °F /  8.4 °C 42.8 °F /  6 °C 30in /  1015.2hPa Calm   2mph /  3.2km/h 85% 0in /  0.0mm 0 W/m2
00:46 47.1 °F /  8.4 °C 42.8 °F /  6 °C 30in /  1015.2hPa Calm   2mph /  3.2km/h 85% 0in /  0.0mm 0 W/m2
00:51 47.1 °F /  8.4 °C 42.8 °F /  6 °C 30in /  1015.2hPa NE 2.9mph /  4.7km/h 6mph /  9.7km/h 85% 0in /  0.0mm 0 W/m2
00:56 47.1 °F /  8.4 °C 42.8 °F /  6 °C 30in /  1015.2hPa Calm   2mph /  3.2km/h 85% 0in /  0.0mm 0 W/m2
01:01 47.1 °F /  8.4 °C 42.8 °F /  6 °C 30in /  1015.2hPa NNE 2mph /  3.2km/h 5mph /  8km/h 85% 0in /  0.0mm 0 W/m2
01:06 47.1 °F /  8.4 °C 42.8 °F /  6 °C 30in /  1015.2hPa NNW 2mph /  3.2km/h 3mph /  4.8km/h 85% 0in /  0.0mm 0 W/m2
01:11 47.1 °F /  8.4 °C 43.2 °F /  6.2 °C 30in /  1015.2hPa Calm     86% 0in /  0.0mm 0 W/m2
01:16 47.1 °F /  8.4 °C 43.2 °F /  6.2 °C 30in /  1015.2hPa Calm   3mph /  4.8km/h 86% 0in /  0.0mm 0 W/m2
01:21 47.1 °F /  8.4 °C 42.8 °F /  6 °C 30in /  1015.2hPa SE 0.9mph /  1.4km/h 4mph /  6.4km/h 85% 0in /  0.0mm 0 W/m2
01:26 47.1 °F /  8.4 °C 43.2 °F /  6.2 °C 30in /  1015.2hPa NNW 0.9mph /  1.4km/h 3mph /  4.8km/h 86% 0in /  0.0mm 0 W/m2
01:31 46.9 °F /  8.3 °C 43 °F /  6.1 °C 30in /  1015.2hPa Calm   1mph /  1.6km/h 86% 0in /  0.0mm 0 W/m2
01:36 46.9 °F /  8.3 °C 43 °F /  6.1 °C 30in /  1015.2hPa NE 0.9mph /  1.4km/h 3mph /  4.8km/h 86% 0in /  0.0mm 0 W/m2
01:41 46.9 °F /  8.3 °C 43 °F /  6.1 °C 30in /  1015.2hPa NW 2mph /  3.2km/h 5mph /  8km/h 86% 0in /  0.0mm 0 W/m2
01:46 46.9 °F /  8.3 °C 43 °F /  6.1 °C 30in /  1015.2hPa NE 2.9mph /  4.7km/h 4mph /  6.4km/h 86% 0in /  0.0mm 0 W/m2
01:52 46.9 °F /  8.3 °C 43.3 °F /  6.3 °C 30in /  1015.2hPa Calm   1mph /  1.6km/h 87% 0in /  0.0mm 0 W/m2
01:57 46.8 °F /  8.2 °C 43.2 °F /  6.2 °C 30in /  1015.2hPa Calm   2mph /  3.2km/h 87% 0in /  0.0mm 0 W/m2
02:02 46.8 °F /  8.2 °C 43.2 °F /  6.2 °C 30in /  1015.2hPa Calm   6mph /  9.7km/h 87% 0in /  0.0mm 0 W/m2
02:07 46.8 °F /  8.2 °C 43.3 °F /  6.3 °C 30in /  1015.2hPa Calm   7mph /  11.3km/h 88% 0in /  0.0mm 0 W/m2
02:12 46.6 °F /  8.1 °C 43.2 °F /  6.2 °C 30in /  1015.2hPa Calm   3mph /  4.8km/h 88% 0in /  0.0mm 0 W/m2
02:17 46.6 °F /  8.1 °C 43.2 °F /  6.2 °C 30in /  1015.2hPa WNW 0.9mph /  1.4km/h 5mph /  8km/h 88% 0in /  0.0mm 0 W/m2
02:22 46.4 °F /  8 °C 43.3 °F /  6.3 °C 30in /  1015.2hPa NW 2mph /  3.2km/h 4mph /  6.4km/h 89% 0in /  0.0mm 0 W/m2
02:27 46.2 °F /  7.9 °C 43.2 °F /  6.2 °C 30in /  1015.2hPa Calm   1mph /  1.6km/h 89% 0in /  0.0mm 0 W/m2
02:32 46.2 °F /  7.9 °C 43.5 °F /  6.4 °C 30in /  1015.2hPa NW 2mph /  3.2km/h 3mph /  4.8km/h 90% 0in /  0.0mm 0 W/m2
02:37 46 °F /  7.8 °C 43.3 °F /  6.3 °C 30in /  1015.2hPa WNW 0.9mph /  1.4km/h 3mph /  4.8km/h 90% 0in /  0.0mm 0 W/m2
Juneau County Weather
Compliments of Weather Underground - 2 mb